sensor_id;sensor_type;location;lat;lon;timestamp;P1;P2;P0
21358;PMS7003;13506;50.852;20.632;2022-11-21T00:01:11;72.50;57.75;33.25
21358;PMS7003;13506;50.852;20.632;2022-11-21T00:03:41;53.25;50.00;33.00
21358;PMS7003;13506;50.852;20.632;2022-11-21T00:06:09;57.00;49.25;29.25
21358;PMS7003;13506;50.852;20.632;2022-11-21T00:08:36;61.60;50.40;31.40
21358;PMS7003;13506;50.852;20.632;2022-11-21T00:11:04;48.75;43.50;26.75
21358;PMS7003;13506;50.852;20.632;2022-11-21T00:13:33;58.00;48.50;28.50
21358;PMS7003;13506;50.852;20.632;2022-11-21T00:16:02;63.80;47.60;27.40
21358;PMS7003;13506;50.852;20.632;2022-11-21T00:18:31;57.20;50.40;28.80
21358;PMS7003;13506;50.852;20.632;2022-11-21T00:21:02;52.00;47.50;29.25
21358;PMS7003;13506;50.852;20.632;2022-11-21T00:23:31;59.25;48.25;32.25
21358;PMS7003;13506;50.852;20.632;2022-11-21T00:26:02;54.00;43.80;23.40
21358;PMS7003;13506;50.852;20.632;2022-11-21T00:28:31;52.00;43.75;23.50
21358;PMS7003;13506;50.852;20.632;2022-11-21T00:31:01;41.00;40.20;22.80
21358;PMS7003;13506;50.852;20.632;2022-11-21T00:33:29;52.75;47.75;30.75
21358;PMS7003;13506;50.852;20.632;2022-11-21T00:35:57;55.00;43.60;24.60
21358;PMS7003;13506;50.852;20.632;2022-11-21T00:38:30;39.00;35.40;22.00
21358;PMS7003;13506;50.852;20.632;2022-11-21T00:40:58;49.60;40.20;21.20
21358;PMS7003;13506;50.852;20.632;2022-11-21T00:43:25;41.60;37.40;22.80
21358;PMS7003;13506;50.852;20.632;2022-11-21T00:45:54;48.60;39.60;21.40
21358;PMS7003;13506;50.852;20.632;2022-11-21T00:48:24;50.60;42.80;24.80
21358;PMS7003;13506;50.852;20.632;2022-11-21T00:50:51;56.40;44.20;25.00
21358;PMS7003;13506;50.852;20.632;2022-11-21T00:53:18;46.40;42.00;24.60
21358;PMS7003;13506;50.852;20.632;2022-11-21T00:55:46;46.60;43.60;24.60
21358;PMS7003;13506;50.852;20.632;2022-11-21T00:58:13;49.60;45.00;26.60
21358;PMS7003;13506;50.852;20.632;2022-11-21T01:00:41;49.60;41.80;20.60
21358;PMS7003;13506;50.852;20.632;2022-11-21T01:03:09;61.80;47.80;28.20
21358;PMS7003;13506;50.852;20.632;2022-11-21T01:05:37;43.00;37.80;22.00
21358;PMS7003;13506;50.852;20.632;2022-11-21T01:08:05;51.60;43.40;27.60
21358;PMS7003;13506;50.852;20.632;2022-11-21T01:10:33;48.60;41.20;23.20
21358;PMS7003;13506;50.852;20.632;2022-11-21T01:13:01;56.75;43.00;27.25
21358;PMS7003;13506;50.852;20.632;2022-11-21T01:15:28;46.80;39.00;24.60
21358;PMS7003;13506;50.852;20.632;2022-11-21T01:17:56;47.80;45.20;26.40
21358;PMS7003;13506;50.852;20.632;2022-11-21T01:20:25;54.40;49.20;30.40
21358;PMS7003;13506;50.852;20.632;2022-11-21T01:22:53;60.25;50.25;31.50
21358;PMS7003;13506;50.852;20.632;2022-11-21T01:25:20;48.50;43.50;25.75
21358;PMS7003;13506;50.852;20.632;2022-11-21T01:27:48;62.25;47.75;28.25
21358;PMS7003;13506;50.852;20.632;2022-11-21T01:30:15;61.80;48.20;26.60
21358;PMS7003;13506;50.852;20.632;2022-11-21T01:32:46;55.80;45.20;27.00
21358;PMS7003;13506;50.852;20.632;2022-11-21T01:35:15;60.25;47.00;26.75
21358;PMS7003;13506;50.852;20.632;2022-11-21T01:37:46;64.25;49.00;28.75
21358;PMS7003;13506;50.852;20.632;2022-11-21T01:40:14;56.40;47.60;26.40
21358;PMS7003;13506;50.852;20.632;2022-11-21T01:42:47;58.40;46.00;25.80
21358;PMS7003;13506;50.852;20.632;2022-11-21T01:48:23;54.80;40.60;22.60
21358;PMS7003;13506;50.852;20.632;2022-11-21T01:50:55;45.20;40.00;25.20
21358;PMS7003;13506;50.852;20.632;2022-11-21T01:53:30;45.60;40.60;24.40
21358;PMS7003;13506;50.852;20.632;2022-11-21T01:55:58;42.60;36.40;22.00
21358;PMS7003;13506;50.852;20.632;2022-11-21T01:58:26;43.40;34.20;19.00
21358;PMS7003;13506;50.852;20.632;2022-11-21T02:00:54;48.60;36.40;20.80
21358;PMS7003;13506;50.852;20.632;2022-11-21T02:03:23;42.40;33.20;17.00
21358;PMS7003;13506;50.852;20.632;2022-11-21T02:05:54;47.20;42.20;23.20
21358;PMS7003;13506;50.852;20.632;2022-11-21T02:08:23;44.80;37.80;21.60
21358;PMS7003;13506;50.852;20.632;2022-11-21T02:10:55;43.40;38.00;23.60
21358;PMS7003;13506;50.852;20.632;2022-11-21T02:13:33;46.40;38.80;24.40
21358;PMS7003;13506;50.852;20.632;2022-11-21T02:16:01;47.20;38.80;20.60
21358;PMS7003;13506;50.852;20.632;2022-11-21T02:18:29;43.40;38.80;21.80
21358;PMS7003;13506;50.852;20.632;2022-11-21T02:20:58;50.75;44.50;26.25
21358;PMS7003;13506;50.852;20.632;2022-11-21T02:23:37;43.40;35.60;20.40
21358;PMS7003;13506;50.852;20.632;2022-11-21T02:26:11;46.00;39.00;20.40
21358;PMS7003;13506;50.852;20.632;2022-11-21T02:28:39;41.20;33.40;21.60
21358;PMS7003;13506;50.852;20.632;2022-11-21T02:31:07;40.80;35.80;17.40
21358;PMS7003;13506;50.852;20.632;2022-11-21T02:33:35;41.20;32.20;20.60
21358;PMS7003;13506;50.852;20.632;2022-11-21T02:36:03;36.40;28.40;17.80
21358;PMS7003;13506;50.852;20.632;2022-11-21T02:38:46;39.00;32.80;19.20
21358;PMS7003;13506;50.852;20.632;2022-11-21T02:41:16;39.40;34.80;20.80
21358;PMS7003;13506;50.852;20.632;2022-11-21T02:43:51;40.20;31.80;19.80
21358;PMS7003;13506;50.852;20.632;2022-11-21T02:46:24;37.60;33.20;19.00
21358;PMS7003;13506;50.852;20.632;2022-11-21T02:48:53;43.60;32.80;18.00
21358;PMS7003;13506;50.852;20.632;2022-11-21T02:51:23;30.60;28.40;15.60
21358;PMS7003;13506;50.852;20.632;2022-11-21T02:53:51;25.20;23.80;14.00
21358;PMS7003;13506;50.852;20.632;2022-11-21T02:56:20;29.80;23.80;14.00
21358;PMS7003;13506;50.852;20.632;2022-11-21T02:58:47;35.00;30.40;15.20
21358;PMS7003;13506;50.852;20.632;2022-11-21T03:01:15;37.80;29.60;17.20
21358;PMS7003;13506;50.852;20.632;2022-11-21T03:03:43;39.80;37.40;20.20
21358;PMS7003;13506;50.852;20.632;2022-11-21T03:06:10;32.40;28.80;17.40
21358;PMS7003;13506;50.852;20.632;2022-11-21T03:08:38;43.00;38.00;21.20
21358;PMS7003;13506;50.852;20.632;2022-11-21T03:11:05;48.20;43.00;22.80
21358;PMS7003;13506;50.852;20.632;2022-11-21T03:13:34;34.40;33.00;20.80
21358;PMS7003;13506;50.852;20.632;2022-11-21T03:16:02;43.20;39.00;20.00
21358;PMS7003;13506;50.852;20.632;2022-11-21T03:18:30;36.60;31.80;17.80
21358;PMS7003;13506;50.852;20.632;2022-11-21T03:20:58;55.00;48.40;27.60
21358;PMS7003;13506;50.852;20.632;2022-11-21T03:23:25;45.00;36.60;21.60
21358;PMS7003;13506;50.852;20.632;2022-11-21T03:25:53;38.20;37.00;19.60
21358;PMS7003;13506;50.852;20.632;2022-11-21T03:28:20;39.80;35.00;22.00
21358;PMS7003;13506;50.852;20.632;2022-11-21T03:30:49;45.20;39.80;23.60
21358;PMS7003;13506;50.852;20.632;2022-11-21T03:33:17;40.20;36.00;24.60
21358;PMS7003;13506;50.852;20.632;2022-11-21T03:35:44;59.00;45.00;25.80
21358;PMS7003;13506;50.852;20.632;2022-11-21T03:38:13;44.40;41.20;23.60
21358;PMS7003;13506;50.852;20.632;2022-11-21T03:40:41;37.20;32.20;20.40
21358;PMS7003;13506;50.852;20.632;2022-11-21T03:43:09;51.25;45.25;23.00
21358;PMS7003;13506;50.852;20.632;2022-11-21T03:45:36;36.60;35.20;18.00
21358;PMS7003;13506;50.852;20.632;2022-11-21T03:48:05;43.40;35.80;21.00
21358;PMS7003;13506;50.852;20.632;2022-11-21T03:50:33;53.40;43.20;25.80
21358;PMS7003;13506;50.852;20.632;2022-11-21T03:53:01;30.60;28.00;18.00
21358;PMS7003;13506;50.852;20.632;2022-11-21T03:55:29;42.00;38.00;20.00
21358;PMS7003;13506;50.852;20.632;2022-11-21T03:57:56;35.20;28.20;17.40
21358;PMS7003;13506;50.852;20.632;2022-11-21T04:00:24;44.80;38.80;19.40
21358;PMS7003;13506;50.852;20.632;2022-11-21T04:02:52;51.80;38.00;22.40
21358;PMS7003;13506;50.852;20.632;2022-11-21T04:05:20;37.80;32.20;16.60
21358;PMS7003;13506;50.852;20.632;2022-11-21T04:07:48;43.80;33.20;17.80
21358;PMS7003;13506;50.852;20.632;2022-11-21T04:10:15;43.00;35.60;20.40
21358;PMS7003;13506;50.852;20.632;2022-11-21T04:12:45;59.20;46.60;26.00
21358;PMS7003;13506;50.852;20.632;2022-11-21T04:15:13;51.00;43.00;24.00
21358;PMS7003;13506;50.852;20.632;2022-11-21T04:17:40;42.00;40.00;22.20
21358;PMS7003;13506;50.852;20.632;2022-11-21T04:20:08;39.40;37.00;19.80
21358;PMS7003;13506;50.852;20.632;2022-11-21T04:22:38;55.20;46.00;25.60
21358;PMS7003;13506;50.852;20.632;2022-11-21T04:25:06;51.80;42.60;25.00
21358;PMS7003;13506;50.852;20.632;2022-11-21T04:27:34;63.00;51.00;30.25
21358;PMS7003;13506;50.852;20.632;2022-11-21T04:30:02;73.00;60.25;35.50
21358;PMS7003;13506;50.852;20.632;2022-11-21T04:32:30;75.00;57.25;36.25
21358;PMS7003;13506;50.852;20.632;2022-11-21T04:34:58;65.75;56.00;35.50
21358;PMS7003;13506;50.852;20.632;2022-11-21T04:37:25;60.00;51.50;34.75
21358;PMS7003;13506;50.852;20.632;2022-11-21T04:39:54;75.75;59.25;35.75
21358;PMS7003;13506;50.852;20.632;2022-11-21T04:42:22;78.50;60.00;35.50
21358;PMS7003;13506;50.852;20.632;2022-11-21T04:44:49;72.00;54.00;34.50
21358;PMS7003;13506;50.852;20.632;2022-11-21T04:47:17;72.75;58.75;35.75
21358;PMS7003;13506;50.852;20.632;2022-11-21T04:49:44;70.00;56.75;35.75
21358;PMS7003;13506;50.852;20.632;2022-11-21T04:52:12;61.50;53.75;32.00
21358;PMS7003;13506;50.852;20.632;2022-11-21T04:54:39;72.00;54.25;35.75
21358;PMS7003;13506;50.852;20.632;2022-11-21T04:57:09;74.50;59.50;39.00
21358;PMS7003;13506;50.852;20.632;2022-11-21T04:59:37;67.75;56.00;36.75
21358;PMS7003;13506;50.852;20.632;2022-11-21T05:02:04;68.75;57.25;34.50
21358;PMS7003;13506;50.852;20.632;2022-11-21T05:04:32;76.25;57.00;35.75
21358;PMS7003;13506;50.852;20.632;2022-11-21T05:07:00;67.00;56.00;35.75
21358;PMS7003;13506;50.852;20.632;2022-11-21T05:09:27;65.25;53.00;35.00
21358;PMS7003;13506;50.852;20.632;2022-11-21T05:11:55;62.50;53.50;32.25
21358;PMS7003;13506;50.852;20.632;2022-11-21T05:14:41;59.50;54.25;32.75
21358;PMS7003;13506;50.852;20.632;2022-11-21T05:17:09;68.25;58.00;36.00
21358;PMS7003;13506;50.852;20.632;2022-11-21T05:19:36;70.75;56.25;36.00
21358;PMS7003;13506;50.852;20.632;2022-11-21T05:22:04;67.75;53.25;32.75
21358;PMS7003;13506;50.852;20.632;2022-11-21T05:24:31;70.50;55.75;32.75
21358;PMS7003;13506;50.852;20.632;2022-11-21T05:26:59;67.00;56.25;32.00
21358;PMS7003;13506;50.852;20.632;2022-11-21T05:29:26;66.50;50.50;29.75
21358;PMS7003;13506;50.852;20.632;2022-11-21T05:31:55;64.50;51.25;32.75
21358;PMS7003;13506;50.852;20.632;2022-11-21T05:34:23;46.50;42.25;24.25
21358;PMS7003;13506;50.852;20.632;2022-11-21T05:36:51;56.50;43.25;27.25
21358;PMS7003;13506;50.852;20.632;2022-11-21T05:39:21;56.00;52.00;32.50
21358;PMS7003;13506;50.852;20.632;2022-11-21T05:41:49;48.75;45.75;25.50
21358;PMS7003;13506;50.852;20.632;2022-11-21T05:44:17;65.50;52.00;30.25
21358;PMS7003;13506;50.852;20.632;2022-11-21T05:46:44;63.00;49.25;28.75
21358;PMS7003;13506;50.852;20.632;2022-11-21T05:49:13;57.00;48.50;29.00
21358;PMS7003;13506;50.852;20.632;2022-11-21T05:51:40;73.00;55.25;33.00
21358;PMS7003;13506;50.852;20.632;2022-11-21T05:54:10;75.75;55.75;31.25
21358;PMS7003;13506;50.852;20.632;2022-11-21T05:56:39;75.50;61.25;35.00
21358;PMS7003;13506;50.852;20.632;2022-11-21T05:59:07;47.00;43.00;28.00
21358;PMS7003;13506;50.852;20.632;2022-11-21T06:01:37;55.00;48.50;32.00
21358;PMS7003;13506;50.852;20.632;2022-11-21T06:04:23;67.50;54.50;34.00
21358;PMS7003;13506;50.852;20.632;2022-11-21T06:06:51;71.00;55.75;32.75
21358;PMS7003;13506;50.852;20.632;2022-11-21T06:09:18;74.75;58.75;36.50
21358;PMS7003;13506;50.852;20.632;2022-11-21T06:11:46;78.50;59.25;35.75
21358;PMS7003;13506;50.852;20.632;2022-11-21T06:14:14;78.50;58.50;37.25
21358;PMS7003;13506;50.852;20.632;2022-11-21T06:16:42;72.50;56.00;35.50
21358;PMS7003;13506;50.852;20.632;2022-11-21T06:19:09;92.75;72.00;44.00
21358;PMS7003;13506;50.852;20.632;2022-11-21T06:21:38;94.50;73.75;44.75
21358;PMS7003;13506;50.852;20.632;2022-11-21T06:24:07;78.25;60.75;37.25
21358;PMS7003;13506;50.852;20.632;2022-11-21T06:26:36;74.50;56.25;34.50
21358;PMS7003;13506;50.852;20.632;2022-11-21T06:29:04;75.00;60.25;38.25
21358;PMS7003;13506;50.852;20.632;2022-11-21T06:31:32;84.00;65.00;39.25
21358;PMS7003;13506;50.852;20.632;2022-11-21T06:33:59;65.25;57.00;37.25
21358;PMS7003;13506;50.852;20.632;2022-11-21T06:36:27;74.50;57.00;34.25
21358;PMS7003;13506;50.852;20.632;2022-11-21T06:38:56;77.50;61.75;37.25
21358;PMS7003;13506;50.852;20.632;2022-11-21T06:41:24;82.00;61.25;34.25
21358;PMS7003;13506;50.852;20.632;2022-11-21T06:43:54;74.00;57.50;34.75
21358;PMS7003;13506;50.852;20.632;2022-11-21T06:46:24;79.25;62.75;37.50
21358;PMS7003;13506;50.852;20.632;2022-11-21T06:48:52;72.25;57.50;36.50
21358;PMS7003;13506;50.852;20.632;2022-11-21T06:51:20;83.25;63.50;42.50
21358;PMS7003;13506;50.852;20.632;2022-11-21T06:53:51;83.75;64.00;37.00
21358;PMS7003;13506;50.852;20.632;2022-11-21T06:56:22;78.00;62.50;39.00
21358;PMS7003;13506;50.852;20.632;2022-11-21T06:58:50;80.50;61.25;37.50
21358;PMS7003;13506;50.852;20.632;2022-11-21T07:01:18;79.00;64.75;38.75
21358;PMS7003;13506;50.852;20.632;2022-11-21T07:03:46;74.00;58.25;36.25
21358;PMS7003;13506;50.852;20.632;2022-11-21T07:06:13;64.50;54.00;36.00
21358;PMS7003;13506;50.852;20.632;2022-11-21T07:08:41;85.75;65.00;38.75
21358;PMS7003;13506;50.852;20.632;2022-11-21T07:11:10;86.50;64.25;40.25
21358;PMS7003;13506;50.852;20.632;2022-11-21T07:13:41;81.00;61.75;38.00
21358;PMS7003;13506;50.852;20.632;2022-11-21T07:16:08;74.75;59.75;37.25
21358;PMS7003;13506;50.852;20.632;2022-11-21T07:18:38;77.00;60.00;37.50
21358;PMS7003;13506;50.852;20.632;2022-11-21T07:21:06;69.00;52.50;34.50
21358;PMS7003;13506;50.852;20.632;2022-11-21T07:23:34;67.75;52.25;34.00
21358;PMS7003;13506;50.852;20.632;2022-11-21T07:26:03;70.50;55.75;34.00
21358;PMS7003;13506;50.852;20.632;2022-11-21T07:28:33;67.00;50.50;33.00
21358;PMS7003;13506;50.852;20.632;2022-11-21T07:31:02;63.75;53.25;34.25
21358;PMS7003;13506;50.852;20.632;2022-11-21T07:33:30;72.00;57.50;35.50
21358;PMS7003;13506;50.852;20.632;2022-11-21T07:35:58;82.25;61.25;39.00
21358;PMS7003;13506;50.852;20.632;2022-11-21T07:38:26;67.50;54.25;36.25
21358;PMS7003;13506;50.852;20.632;2022-11-21T07:40:55;62.50;50.75;33.25
21358;PMS7003;13506;50.852;20.632;2022-11-21T07:43:22;73.25;57.75;36.50
21358;PMS7003;13506;50.852;20.632;2022-11-21T07:45:50;72.50;58.00;37.25
21358;PMS7003;13506;50.852;20.632;2022-11-21T07:48:19;80.25;60.25;37.50
21358;PMS7003;13506;50.852;20.632;2022-11-21T07:50:47;76.50;60.50;38.50
21358;PMS7003;13506;50.852;20.632;2022-11-21T07:53:14;82.25;64.00;40.75
21358;PMS7003;13506;50.852;20.632;2022-11-21T07:55:42;76.00;56.50;36.00
21358;PMS7003;13506;50.852;20.632;2022-11-21T07:58:10;76.50;59.25;38.00
21358;PMS7003;13506;50.852;20.632;2022-11-21T08:00:43;76.25;59.00;40.25
21358;PMS7003;13506;50.852;20.632;2022-11-21T08:03:11;74.50;56.25;36.75
21358;PMS7003;13506;50.852;20.632;2022-11-21T08:05:40;72.00;56.75;37.00
21358;PMS7003;13506;50.852;20.632;2022-11-21T08:08:09;76.00;56.25;36.00
21358;PMS7003;13506;50.852;20.632;2022-11-21T08:10:39;78.25;57.50;37.25
21358;PMS7003;13506;50.852;20.632;2022-11-21T08:13:08;73.25;56.75;35.25
21358;PMS7003;13506;50.852;20.632;2022-11-21T08:15:37;74.50;56.00;36.00
21358;PMS7003;13506;50.852;20.632;2022-11-21T08:18:08;75.50;58.00;36.75
21358;PMS7003;13506;50.852;20.632;2022-11-21T08:20:36;71.50;54.50;34.50
21358;PMS7003;13506;50.852;20.632;2022-11-21T08:23:06;72.75;54.50;36.00
21358;PMS7003;13506;50.852;20.632;2022-11-21T08:25:35;68.75;52.50;35.75
21358;PMS7003;13506;50.852;20.632;2022-11-21T08:28:03;69.75;53.00;33.50
21358;PMS7003;13506;50.852;20.632;2022-11-21T08:30:31;68.00;50.75;32.00
21358;PMS7003;13506;50.852;20.632;2022-11-21T08:33:00;61.75;47.75;30.00
21358;PMS7003;13506;50.852;20.632;2022-11-21T08:35:29;58.25;46.25;29.75
21358;PMS7003;13506;50.852;20.632;2022-11-21T08:37:57;57.75;46.75;29.25
21358;PMS7003;13506;50.852;20.632;2022-11-21T08:40:28;60.50;45.75;28.75
21358;PMS7003;13506;50.852;20.632;2022-11-21T08:42:57;58.50;45.75;28.50
21358;PMS7003;13506;50.852;20.632;2022-11-21T08:45:25;55.50;44.25;28.50
21358;PMS7003;13506;50.852;20.632;2022-11-21T08:47:53;60.25;47.75;29.75
21358;PMS7003;13506;50.852;20.632;2022-11-21T08:50:21;59.25;46.00;28.50
21358;PMS7003;13506;50.852;20.632;2022-11-21T08:52:49;61.50;46.00;30.00
21358;PMS7003;13506;50.852;20.632;2022-11-21T08:55:17;56.75;45.00;29.75
21358;PMS7003;13506;50.852;20.632;2022-11-21T08:57:48;64.50;48.00;29.50
21358;PMS7003;13506;50.852;20.632;2022-11-21T09:00:16;58.75;47.00;30.75
21358;PMS7003;13506;50.852;20.632;2022-11-21T09:02:44;60.50;48.00;31.00
21358;PMS7003;13506;50.852;20.632;2022-11-21T09:05:11;56.25;44.00;28.75
21358;PMS7003;13506;50.852;20.632;2022-11-21T09:07:40;59.75;43.25;27.00
21358;PMS7003;13506;50.852;20.632;2022-11-21T09:10:09;57.50;46.50;28.25
21358;PMS7003;13506;50.852;20.632;2022-11-21T09:12:36;58.40;45.20;27.20
21358;PMS7003;13506;50.852;20.632;2022-11-21T09:15:07;63.00;46.25;29.00
21358;PMS7003;13506;50.852;20.632;2022-11-21T09:17:54;54.60;43.00;26.00
21358;PMS7003;13506;50.852;20.632;2022-11-21T09:20:28;46.80;42.40;25.40
21358;PMS7003;13506;50.852;20.632;2022-11-21T09:23:02;61.50;46.50;29.00
21358;PMS7003;13506;50.852;20.632;2022-11-21T09:25:30;62.50;47.25;29.00
21358;PMS7003;13506;50.852;20.632;2022-11-21T09:27:58;61.50;47.00;28.75
21358;PMS7003;13506;50.852;20.632;2022-11-21T09:30:31;57.00;43.50;28.25
21358;PMS7003;13506;50.852;20.632;2022-11-21T09:32:59;58.75;47.25;30.25
21358;PMS7003;13506;50.852;20.632;2022-11-21T09:35:27;59.50;45.00;29.00
21358;PMS7003;13506;50.852;20.632;2022-11-21T09:37:55;59.75;47.50;30.00
21358;PMS7003;13506;50.852;20.632;2022-11-21T09:40:22;58.00;46.50;29.25
21358;PMS7003;13506;50.852;20.632;2022-11-21T09:43:03;60.25;48.00;30.00
21358;PMS7003;13506;50.852;20.632;2022-11-21T09:45:52;57.50;44.75;28.75
21358;PMS7003;13506;50.852;20.632;2022-11-21T09:48:28;63.50;48.00;28.75
21358;PMS7003;13506;50.852;20.632;2022-11-21T09:51:01;52.25;45.00;28.50
21358;PMS7003;13506;50.852;20.632;2022-11-21T09:53:35;57.25;43.00;27.50
21358;PMS7003;13506;50.852;20.632;2022-11-21T09:56:18;59.50;47.00;31.00
21358;PMS7003;13506;50.852;20.632;2022-11-21T09:58:50;60.00;45.50;29.00
21358;PMS7003;13506;50.852;20.632;2022-11-21T10:01:37;60.75;47.00;28.75
21358;PMS7003;13506;50.852;20.632;2022-11-21T10:04:04;61.25;47.50;28.25
21358;PMS7003;13506;50.852;20.632;2022-11-21T10:06:34;53.25;43.50;28.00
21358;PMS7003;13506;50.852;20.632;2022-11-21T10:09:12;50.60;41.20;26.60
21358;PMS7003;13506;50.852;20.632;2022-11-21T10:11:50;52.00;43.00;26.00
21358;PMS7003;13506;50.852;20.632;2022-11-21T10:14:50;49.50;42.00;26.00
21358;PMS7003;13506;50.852;20.632;2022-11-21T10:17:33;52.00;40.60;25.60
21358;PMS7003;13506;50.852;20.632;2022-11-21T10:20:17;47.20;40.20;25.80
21358;PMS7003;13506;50.852;20.632;2022-11-21T10:23:13;54.50;41.25;26.00
21358;PMS7003;13506;50.852;20.632;2022-11-21T10:25:55;54.75;43.00;27.00
21358;PMS7003;13506;50.852;20.632;2022-11-21T10:28:36;51.25;41.50;26.50
21358;PMS7003;13506;50.852;20.632;2022-11-21T10:31:12;51.50;40.50;25.25
21358;PMS7003;13506;50.852;20.632;2022-11-21T10:33:42;44.00;38.50;25.75
21358;PMS7003;13506;50.852;20.632;2022-11-21T10:36:12;48.00;38.20;24.40
21358;PMS7003;13506;50.852;20.632;2022-11-21T10:38:51;47.40;37.80;23.80
21358;PMS7003;13506;50.852;20.632;2022-11-21T10:41:29;43.80;37.80;23.60
21358;PMS7003;13506;50.852;20.632;2022-11-21T10:44:08;41.40;37.20;23.60
21358;PMS7003;13506;50.852;20.632;2022-11-21T10:47:11;31.60;30.20;19.80
21358;PMS7003;13506;50.852;20.632;2022-11-21T10:49:42;45.00;41.00;25.00
21358;PMS7003;13506;50.852;20.632;2022-11-21T10:52:15;36.40;34.20;19.00
21358;PMS7003;13506;50.852;20.632;2022-11-21T10:57:39;46.40;38.00;22.60
21358;PMS7003;13506;50.852;20.632;2022-11-21T11:00:17;47.20;41.60;22.60
21358;PMS7003;13506;50.852;20.632;2022-11-21T11:03:02;46.80;41.80;25.60
21358;PMS7003;13506;50.852;20.632;2022-11-21T11:05:34;51.00;43.20;27.20
21358;PMS7003;13506;50.852;20.632;2022-11-21T11:08:05;40.40;35.40;19.60
21358;PMS7003;13506;50.852;20.632;2022-11-21T11:10:35;61.00;48.00;30.25
21358;PMS7003;13506;50.852;20.632;2022-11-21T11:13:10;41.25;37.25;21.50
21358;PMS7003;13506;50.852;20.632;2022-11-21T11:16:00;36.40;32.20;19.60
21358;PMS7003;13506;50.852;20.632;2022-11-21T11:18:31;32.80;28.00;20.00
21358;PMS7003;13506;50.852;20.632;2022-11-21T11:21:14;34.00;30.20;18.80
21358;PMS7003;13506;50.852;20.632;2022-11-21T11:23:46;36.60;34.40;20.00
21358;PMS7003;13506;50.852;20.632;2022-11-21T11:26:19;27.80;27.20;18.20
21358;PMS7003;13506;50.852;20.632;2022-11-21T11:28:49;36.00;34.00;21.20
21358;PMS7003;13506;50.852;20.632;2022-11-21T11:31:17;31.60;25.40;17.00
21358;PMS7003;13506;50.852;20.632;2022-11-21T11:33:51;36.40;32.60;19.20
21358;PMS7003;13506;50.852;20.632;2022-11-21T11:36:35;36.80;26.60;16.20
21358;PMS7003;13506;50.852;20.632;2022-11-21T11:39:08;35.40;31.20;18.80
21358;PMS7003;13506;50.852;20.632;2022-11-21T11:41:50;33.00;29.40;18.40
21358;PMS7003;13506;50.852;20.632;2022-11-21T11:45:19;30.00;25.20;14.20
21358;PMS7003;13506;50.852;20.632;2022-11-21T11:48:21;24.00;22.20;14.80
21358;PMS7003;13506;50.852;20.632;2022-11-21T11:50:49;30.20;26.80;16.80
21358;PMS7003;13506;50.852;20.632;2022-11-21T11:53:21;28.80;25.00;16.20
21358;PMS7003;13506;50.852;20.632;2022-11-21T11:55:55;29.20;24.80;14.00
21358;PMS7003;13506;50.852;20.632;2022-11-21T11:58:28;24.60;23.00;14.40
21358;PMS7003;13506;50.852;20.632;2022-11-21T12:01:02;34.60;29.00;18.20
21358;PMS7003;13506;50.852;20.632;2022-11-21T12:03:41;33.00;28.00;17.40
21358;PMS7003;13506;50.852;20.632;2022-11-21T12:06:17;21.40;17.60;11.20
21358;PMS7003;13506;50.852;20.632;2022-11-21T12:08:52;27.20;23.40;14.00
21358;PMS7003;13506;50.852;20.632;2022-11-21T12:11:33;27.20;24.80;13.80
21358;PMS7003;13506;50.852;20.632;2022-11-21T12:14:40;30.40;27.00;16.60
21358;PMS7003;13506;50.852;20.632;2022-11-21T12:17:38;30.20;22.60;15.00
21358;PMS7003;13506;50.852;20.632;2022-11-21T12:20:13;25.80;25.60;14.00
21358;PMS7003;13506;50.852;20.632;2022-11-21T12:22:45;31.60;26.20;15.20
21358;PMS7003;13506;50.852;20.632;2022-11-21T12:25:20;36.40;30.20;17.80
21358;PMS7003;13506;50.852;20.632;2022-11-21T12:27:55;32.80;32.00;19.20
21358;PMS7003;13506;50.852;20.632;2022-11-21T12:30:30;21.40;19.80;11.20
21358;PMS7003;13506;50.852;20.632;2022-11-21T12:33:20;25.00;20.20;12.60
21358;PMS7003;13506;50.852;20.632;2022-11-21T12:35:59;22.20;20.00;12.20
21358;PMS7003;13506;50.852;20.632;2022-11-21T12:38:51;16.20;15.60;9.20
21358;PMS7003;13506;50.852;20.632;2022-11-21T12:41:42;23.60;22.80;13.60
21358;PMS7003;13506;50.852;20.632;2022-11-21T12:44:42;32.00;28.00;16.20
21358;PMS7003;13506;50.852;20.632;2022-11-21T12:47:32;22.40;20.20;10.80
21358;PMS7003;13506;50.852;20.632;2022-11-21T12:50:40;24.20;21.20;13.60
21358;PMS7003;13506;50.852;20.632;2022-11-21T12:53:38;25.80;22.80;13.40
21358;PMS7003;13506;50.852;20.632;2022-11-21T12:56:36;18.40;17.00;9.00
21358;PMS7003;13506;50.852;20.632;2022-11-21T12:59:14;21.80;19.40;10.40
21358;PMS7003;13506;50.852;20.632;2022-11-21T13:01:43;21.00;17.20;9.20
21358;PMS7003;13506;50.852;20.632;2022-11-21T13:04:23;20.20;16.00;9.00
21358;PMS7003;13506;50.852;20.632;2022-11-21T13:06:56;22.40;21.80;10.00
21358;PMS7003;13506;50.852;20.632;2022-11-21T13:09:24;25.20;21.40;12.00
21358;PMS7003;13506;50.852;20.632;2022-11-21T13:11:59;22.60;18.20;10.00
21358;PMS7003;13506;50.852;20.632;2022-11-21T13:14:36;26.80;24.20;15.60
21358;PMS7003;13506;50.852;20.632;2022-11-21T13:17:13;38.20;32.00;17.40
21358;PMS7003;13506;50.852;20.632;2022-11-21T13:19:51;35.40;26.80;15.40
21358;PMS7003;13506;50.852;20.632;2022-11-21T13:25:35;25.20;21.40;13.20
21358;PMS7003;13506;50.852;20.632;2022-11-21T13:31:14;21.00;18.80;10.40
21358;PMS7003;13506;50.852;20.632;2022-11-21T13:33:56;24.60;24.20;14.20
21358;PMS7003;13506;50.852;20.632;2022-11-21T13:36:37;23.00;21.60;13.80
21358;PMS7003;13506;50.852;20.632;2022-11-21T13:42:02;22.20;20.00;12.20
21358;PMS7003;13506;50.852;20.632;2022-11-21T13:44:56;24.20;20.20;10.40
21358;PMS7003;13506;50.852;20.632;2022-11-21T13:47:49;23.40;19.60;9.60
21358;PMS7003;13506;50.852;20.632;2022-11-21T13:51:10;24.80;20.20;12.20
21358;PMS7003;13506;50.852;20.632;2022-11-21T13:54:15;34.80;26.20;14.40
21358;PMS7003;13506;50.852;20.632;2022-11-21T13:57:07;30.60;29.20;14.80
21358;PMS7003;13506;50.852;20.632;2022-11-21T13:59:55;33.40;29.60;17.40
21358;PMS7003;13506;50.852;20.632;2022-11-21T14:02:47;20.80;19.00;10.40
21358;PMS7003;13506;50.852;20.632;2022-11-21T14:05:33;28.00;22.80;13.00
21358;PMS7003;13506;50.852;20.632;2022-11-21T14:08:28;29.20;23.20;13.20
21358;PMS7003;13506;50.852;20.632;2022-11-21T14:10:57;30.80;25.20;14.00
21358;PMS7003;13506;50.852;20.632;2022-11-21T14:13:45;29.80;27.40;16.80
21358;PMS7003;13506;50.852;20.632;2022-11-21T14:16:23;29.60;27.00;15.40
21358;PMS7003;13506;50.852;20.632;2022-11-21T14:18:58;31.00;23.40;15.80